sensor_id;sensor_type;location;lat;lon;timestamp;P1;durP1;ratioP1;P2;durP2;ratioP2
6033;SDS011;3045;43.226;27.858;2022-12-18T00:00:12;2.80;;;2.70;;
6033;SDS011;3045;43.226;27.858;2022-12-18T00:02:41;3.20;;;2.80;;
6033;SDS011;3045;43.226;27.858;2022-12-18T00:05:08;2.77;;;2.67;;
6033;SDS011;3045;43.226;27.858;2022-12-18T00:07:35;2.63;;;2.27;;
6033;SDS011;3045;43.226;27.858;2022-12-18T00:10:03;2.53;;;2.43;;
6033;SDS011;3045;43.226;27.858;2022-12-18T00:12:31;2.43;;;2.33;;
6033;SDS011;3045;43.226;27.858;2022-12-18T00:14:57;2.97;;;2.87;;
6033;SDS011;3045;43.226;27.858;2022-12-18T00:17:24;2.80;;;2.70;;
6033;SDS011;3045;43.226;27.858;2022-12-18T00:19:53;2.80;;;2.70;;
6033;SDS011;3045;43.226;27.858;2022-12-18T00:22:19;2.80;;;2.70;;
6033;SDS011;3045;43.226;27.858;2022-12-18T00:24:46;2.43;;;2.33;;
6033;SDS011;3045;43.226;27.858;2022-12-18T00:27:13;2.50;;;2.40;;
6033;SDS011;3045;43.226;27.858;2022-12-18T00:29:40;2.63;;;2.53;;
6033;SDS011;3045;43.226;27.858;2022-12-18T00:32:07;2.50;;;2.40;;
6033;SDS011;3045;43.226;27.858;2022-12-18T00:34:34;2.53;;;2.43;;
6033;SDS011;3045;43.226;27.858;2022-12-18T00:37:02;2.90;;;2.70;;
6033;SDS011;3045;43.226;27.858;2022-12-18T00:39:29;2.80;;;2.70;;
6033;SDS011;3045;43.226;27.858;2022-12-18T00:41:55;2.87;;;2.77;;
6033;SDS011;3045;43.226;27.858;2022-12-18T00:44:40;2.63;;;2.53;;
6033;SDS011;3045;43.226;27.858;2022-12-18T00:47:07;2.90;;;2.80;;
6033;SDS011;3045;43.226;27.858;2022-12-18T00:49:34;2.83;;;2.73;;
6033;SDS011;3045;43.226;27.858;2022-12-18T00:52:02;2.70;;;2.60;;
6033;SDS011;3045;43.226;27.858;2022-12-18T00:54:29;3.00;;;2.90;;
6033;SDS011;3045;43.226;27.858;2022-12-18T00:56:56;2.60;;;2.50;;
6033;SDS011;3045;43.226;27.858;2022-12-18T00:59:23;2.87;;;2.77;;
6033;SDS011;3045;43.226;27.858;2022-12-18T01:01:50;2.83;;;2.73;;
6033;SDS011;3045;43.226;27.858;2022-12-18T01:04:16;2.70;;;2.60;;
6033;SDS011;3045;43.226;27.858;2022-12-18T01:06:43;3.33;;;3.13;;
6033;SDS011;3045;43.226;27.858;2022-12-18T01:09:11;3.10;;;3.00;;
6033;SDS011;3045;43.226;27.858;2022-12-18T01:11:39;2.80;;;2.70;;
6033;SDS011;3045;43.226;27.858;2022-12-18T01:14:07;2.50;;;2.40;;
6033;SDS011;3045;43.226;27.858;2022-12-18T01:16:35;2.73;;;2.63;;
6033;SDS011;3045;43.226;27.858;2022-12-18T01:19:01;2.70;;;2.60;;
6033;SDS011;3045;43.226;27.858;2022-12-18T01:21:28;3.00;;;2.90;;
6033;SDS011;3045;43.226;27.858;2022-12-18T01:23:56;2.70;;;2.60;;
6033;SDS011;3045;43.226;27.858;2022-12-18T01:26:24;2.90;;;2.70;;
6033;SDS011;3045;43.226;27.858;2022-12-18T01:28:54;2.70;;;2.60;;
6033;SDS011;3045;43.226;27.858;2022-12-18T01:31:21;2.73;;;2.53;;
6033;SDS011;3045;43.226;27.858;2022-12-18T01:33:49;2.70;;;2.60;;
6033;SDS011;3045;43.226;27.858;2022-12-18T01:36:18;2.97;;;2.83;;
6033;SDS011;3045;43.226;27.858;2022-12-18T01:38:47;2.80;;;2.60;;
6033;SDS011;3045;43.226;27.858;2022-12-18T01:41:14;5.70;;;2.40;;
6033;SDS011;3045;43.226;27.858;2022-12-18T01:43:48;2.70;;;2.60;;
6033;SDS011;3045;43.226;27.858;2022-12-18T01:46:18;3.00;;;2.70;;
6033;SDS011;3045;43.226;27.858;2022-12-18T01:48:48;3.23;;;3.10;;
6033;SDS011;3045;43.226;27.858;2022-12-18T01:51:17;2.93;;;2.70;;
6033;SDS011;3045;43.226;27.858;2022-12-18T01:53:45;2.63;;;2.53;;
6033;SDS011;3045;43.226;27.858;2022-12-18T01:56:13;2.80;;;2.70;;
6033;SDS011;3045;43.226;27.858;2022-12-18T01:58:44;2.90;;;2.80;;
6033;SDS011;3045;43.226;27.858;2022-12-18T02:01:18;2.63;;;2.53;;
6033;SDS011;3045;43.226;27.858;2022-12-18T02:03:46;2.60;;;2.50;;
6033;SDS011;3045;43.226;27.858;2022-12-18T02:06:15;3.07;;;2.97;;
6033;SDS011;3045;43.226;27.858;2022-12-18T02:08:48;3.10;;;2.80;;
6033;SDS011;3045;43.226;27.858;2022-12-18T02:11:29;2.90;;;2.80;;
6033;SDS011;3045;43.226;27.858;2022-12-18T02:14:08;3.30;;;3.20;;
6033;SDS011;3045;43.226;27.858;2022-12-18T02:16:44;3.00;;;2.90;;
6033;SDS011;3045;43.226;27.858;2022-12-18T02:19:26;3.07;;;2.97;;
6033;SDS011;3045;43.226;27.858;2022-12-18T02:22:07;2.83;;;2.73;;
6033;SDS011;3045;43.226;27.858;2022-12-18T02:24:45;3.40;;;3.30;;
6033;SDS011;3045;43.226;27.858;2022-12-18T02:27:23;3.63;;;3.47;;
6033;SDS011;3045;43.226;27.858;2022-12-18T02:29:51;3.17;;;2.93;;
6033;SDS011;3045;43.226;27.858;2022-12-18T02:32:22;3.33;;;3.23;;
6033;SDS011;3045;43.226;27.858;2022-12-18T02:34:54;3.03;;;2.93;;
6033;SDS011;3045;43.226;27.858;2022-12-18T02:37:23;3.10;;;3.00;;
6033;SDS011;3045;43.226;27.858;2022-12-18T02:39:54;3.40;;;3.30;;
6033;SDS011;3045;43.226;27.858;2022-12-18T02:42:26;3.27;;;3.17;;
6033;SDS011;3045;43.226;27.858;2022-12-18T02:44:54;3.43;;;3.33;;
6033;SDS011;3045;43.226;27.858;2022-12-18T02:47:21;2.43;;;2.33;;
6033;SDS011;3045;43.226;27.858;2022-12-18T02:49:53;2.67;;;2.57;;
6033;SDS011;3045;43.226;27.858;2022-12-18T02:52:29;2.63;;;2.53;;
6033;SDS011;3045;43.226;27.858;2022-12-18T02:55:06;2.93;;;2.73;;
6033;SDS011;3045;43.226;27.858;2022-12-18T02:57:44;3.30;;;3.00;;
6033;SDS011;3045;43.226;27.858;2022-12-18T03:00:16;2.87;;;2.77;;
6033;SDS011;3045;43.226;27.858;2022-12-18T03:02:47;3.50;;;3.40;;
6033;SDS011;3045;43.226;27.858;2022-12-18T03:05:22;3.67;;;3.57;;
6033;SDS011;3045;43.226;27.858;2022-12-18T03:07:55;3.37;;;3.27;;
6033;SDS011;3045;43.226;27.858;2022-12-18T03:10:27;3.30;;;3.20;;
6033;SDS011;3045;43.226;27.858;2022-12-18T03:13:00;3.83;;;3.63;;
6033;SDS011;3045;43.226;27.858;2022-12-18T03:15:31;4.07;;;3.90;;
6033;SDS011;3045;43.226;27.858;2022-12-18T03:18:02;3.30;;;3.20;;
6033;SDS011;3045;43.226;27.858;2022-12-18T03:20:34;3.00;;;2.90;;
6033;SDS011;3045;43.226;27.858;2022-12-18T03:23:04;3.13;;;2.93;;
6033;SDS011;3045;43.226;27.858;2022-12-18T03:25:35;3.13;;;3.03;;
6033;SDS011;3045;43.226;27.858;2022-12-18T03:28:07;3.07;;;2.97;;
6033;SDS011;3045;43.226;27.858;2022-12-18T03:30:37;3.40;;;3.10;;
6033;SDS011;3045;43.226;27.858;2022-12-18T03:33:08;3.37;;;3.27;;
6033;SDS011;3045;43.226;27.858;2022-12-18T03:35:39;3.13;;;3.03;;
6033;SDS011;3045;43.226;27.858;2022-12-18T03:38:08;3.23;;;3.10;;
6033;SDS011;3045;43.226;27.858;2022-12-18T03:40:39;3.33;;;3.10;;
6033;SDS011;3045;43.226;27.858;2022-12-18T03:43:30;2.97;;;2.87;;
6033;SDS011;3045;43.226;27.858;2022-12-18T03:46:11;3.20;;;3.10;;
6033;SDS011;3045;43.226;27.858;2022-12-18T03:48:51;3.10;;;3.00;;
6033;SDS011;3045;43.226;27.858;2022-12-18T03:51:23;2.30;;;2.20;;
6033;SDS011;3045;43.226;27.858;2022-12-18T03:53:53;2.73;;;2.53;;
6033;SDS011;3045;43.226;27.858;2022-12-18T03:56:25;2.57;;;2.47;;
6033;SDS011;3045;43.226;27.858;2022-12-18T03:58:57;3.63;;;2.37;;
6033;SDS011;3045;43.226;27.858;2022-12-18T04:01:28;2.60;;;2.50;;
6033;SDS011;3045;43.226;27.858;2022-12-18T04:03:58;2.00;;;1.90;;
6033;SDS011;3045;43.226;27.858;2022-12-18T04:06:26;2.30;;;2.20;;
6033;SDS011;3045;43.226;27.858;2022-12-18T04:08:54;2.27;;;2.17;;
6033;SDS011;3045;43.226;27.858;2022-12-18T04:11:23;2.70;;;2.50;;
6033;SDS011;3045;43.226;27.858;2022-12-18T04:13:50;3.10;;;3.00;;
6033;SDS011;3045;43.226;27.858;2022-12-18T04:16:23;2.90;;;2.80;;
6033;SDS011;3045;43.226;27.858;2022-12-18T04:18:50;2.70;;;2.60;;
6033;SDS011;3045;43.226;27.858;2022-12-18T04:21:18;2.93;;;2.83;;
6033;SDS011;3045;43.226;27.858;2022-12-18T04:23:45;3.03;;;2.93;;
6033;SDS011;3045;43.226;27.858;2022-12-18T04:26:12;3.53;;;3.33;;
6033;SDS011;3045;43.226;27.858;2022-12-18T04:28:39;6.03;;;3.20;;
6033;SDS011;3045;43.226;27.858;2022-12-18T04:31:07;3.47;;;3.30;;
6033;SDS011;3045;43.226;27.858;2022-12-18T04:33:34;3.80;;;3.60;;
6033;SDS011;3045;43.226;27.858;2022-12-18T04:36:01;4.20;;;4.00;;
6033;SDS011;3045;43.226;27.858;2022-12-18T04:38:27;4.40;;;4.20;;
6033;SDS011;3045;43.226;27.858;2022-12-18T04:40:54;9.00;;;4.20;;
6033;SDS011;3045;43.226;27.858;2022-12-18T04:43:21;4.10;;;3.90;;
6033;SDS011;3045;43.226;27.858;2022-12-18T04:45:48;5.33;;;5.03;;
6033;SDS011;3045;43.226;27.858;2022-12-18T04:48:16;5.53;;;5.23;;
6033;SDS011;3045;43.226;27.858;2022-12-18T04:50:43;5.50;;;5.30;;
6033;SDS011;3045;43.226;27.858;2022-12-18T04:53:10;5.40;;;5.10;;
6033;SDS011;3045;43.226;27.858;2022-12-18T04:55:37;5.03;;;4.83;;
6033;SDS011;3045;43.226;27.858;2022-12-18T04:58:04;7.90;;;6.40;;
6033;SDS011;3045;43.226;27.858;2022-12-18T05:00:31;7.50;;;6.90;;
6033;SDS011;3045;43.226;27.858;2022-12-18T05:02:57;7.13;;;6.50;;
6033;SDS011;3045;43.226;27.858;2022-12-18T05:05:28;6.60;;;6.30;;
6033;SDS011;3045;43.226;27.858;2022-12-18T05:07:55;7.53;;;6.93;;
6033;SDS011;3045;43.226;27.858;2022-12-18T05:10:22;6.97;;;6.60;;
6033;SDS011;3045;43.226;27.858;2022-12-18T05:12:49;6.87;;;6.57;;
6033;SDS011;3045;43.226;27.858;2022-12-18T05:15:26;6.77;;;6.47;;
6033;SDS011;3045;43.226;27.858;2022-12-18T05:17:54;6.77;;;6.27;;
6033;SDS011;3045;43.226;27.858;2022-12-18T05:20:20;6.93;;;6.60;;
6033;SDS011;3045;43.226;27.858;2022-12-18T05:22:49;8.03;;;7.60;;
6033;SDS011;3045;43.226;27.858;2022-12-18T05:25:16;9.57;;;7.80;;
6033;SDS011;3045;43.226;27.858;2022-12-18T05:27:43;8.50;;;8.00;;
6033;SDS011;3045;43.226;27.858;2022-12-18T05:30:11;9.40;;;8.60;;
6033;SDS011;3045;43.226;27.858;2022-12-18T05:32:38;9.70;;;9.00;;
6033;SDS011;3045;43.226;27.858;2022-12-18T05:35:06;9.73;;;9.10;;
6033;SDS011;3045;43.226;27.858;2022-12-18T05:37:35;12.67;;;9.70;;
6033;SDS011;3045;43.226;27.858;2022-12-18T05:40:04;11.17;;;10.20;;
6033;SDS011;3045;43.226;27.858;2022-12-18T05:42:31;10.13;;;9.43;;
6033;SDS011;3045;43.226;27.858;2022-12-18T05:44:58;10.33;;;9.47;;
6033;SDS011;3045;43.226;27.858;2022-12-18T05:47:26;11.03;;;10.23;;
6033;SDS011;3045;43.226;27.858;2022-12-18T05:49:53;11.87;;;10.90;;
6033;SDS011;3045;43.226;27.858;2022-12-18T05:52:20;10.27;;;9.67;;
6033;SDS011;3045;43.226;27.858;2022-12-18T05:54:47;11.40;;;10.50;;
6033;SDS011;3045;43.226;27.858;2022-12-18T05:57:15;11.77;;;10.67;;
6033;SDS011;3045;43.226;27.858;2022-12-18T05:59:42;12.67;;;11.57;;
6033;SDS011;3045;43.226;27.858;2022-12-18T06:02:09;11.97;;;10.77;;
6033;SDS011;3045;43.226;27.858;2022-12-18T06:04:36;11.87;;;10.80;;
6033;SDS011;3045;43.226;27.858;2022-12-18T06:07:03;12.87;;;11.50;;
6033;SDS011;3045;43.226;27.858;2022-12-18T06:09:30;12.00;;;11.00;;
6033;SDS011;3045;43.226;27.858;2022-12-18T06:11:57;13.00;;;11.90;;
6033;SDS011;3045;43.226;27.858;2022-12-18T06:14:25;13.83;;;12.40;;
6033;SDS011;3045;43.226;27.858;2022-12-18T06:16:52;16.33;;;13.87;;
6033;SDS011;3045;43.226;27.858;2022-12-18T06:19:19;14.87;;;13.40;;
6033;SDS011;3045;43.226;27.858;2022-12-18T06:21:46;14.53;;;13.13;;
6033;SDS011;3045;43.226;27.858;2022-12-18T06:24:14;15.17;;;13.53;;
6033;SDS011;3045;43.226;27.858;2022-12-18T06:26:41;19.07;;;14.57;;
6033;SDS011;3045;43.226;27.858;2022-12-18T06:29:08;14.30;;;12.90;;
6033;SDS011;3045;43.226;27.858;2022-12-18T06:31:36;14.70;;;13.27;;
6033;SDS011;3045;43.226;27.858;2022-12-18T06:34:03;14.73;;;13.23;;
6033;SDS011;3045;43.226;27.858;2022-12-18T06:36:30;14.20;;;12.90;;
6033;SDS011;3045;43.226;27.858;2022-12-18T06:38:57;14.00;;;12.67;;
6033;SDS011;3045;43.226;27.858;2022-12-18T06:41:24;14.17;;;12.77;;
6033;SDS011;3045;43.226;27.858;2022-12-18T06:43:51;14.57;;;13.13;;
6033;SDS011;3045;43.226;27.858;2022-12-18T06:46:18;14.73;;;13.17;;
6033;SDS011;3045;43.226;27.858;2022-12-18T06:48:50;15.97;;;13.53;;
6033;SDS011;3045;43.226;27.858;2022-12-18T06:51:17;15.03;;;13.60;;
6033;SDS011;3045;43.226;27.858;2022-12-18T06:53:45;16.27;;;14.40;;
6033;SDS011;3045;43.226;27.858;2022-12-18T06:56:12;15.43;;;13.60;;
6033;SDS011;3045;43.226;27.858;2022-12-18T06:58:39;18.33;;;13.80;;
6033;SDS011;3045;43.226;27.858;2022-12-18T07:01:07;18.77;;;15.10;;
6033;SDS011;3045;43.226;27.858;2022-12-18T07:03:36;16.93;;;15.13;;
6033;SDS011;3045;43.226;27.858;2022-12-18T07:06:05;16.70;;;14.57;;
6033;SDS011;3045;43.226;27.858;2022-12-18T07:08:32;19.73;;;15.30;;
6033;SDS011;3045;43.226;27.858;2022-12-18T07:11:02;19.03;;;15.60;;
6033;SDS011;3045;43.226;27.858;2022-12-18T07:13:29;18.40;;;15.53;;
6033;SDS011;3045;43.226;27.858;2022-12-18T07:16:02;20.70;;;16.03;;
6033;SDS011;3045;43.226;27.858;2022-12-18T07:18:30;26.77;;;16.97;;
6033;SDS011;3045;43.226;27.858;2022-12-18T07:20:56;18.13;;;16.13;;
6033;SDS011;3045;43.226;27.858;2022-12-18T07:23:25;22.37;;;16.23;;
6033;SDS011;3045;43.226;27.858;2022-12-18T07:25:51;21.57;;;16.30;;
6033;SDS011;3045;43.226;27.858;2022-12-18T07:28:18;21.23;;;16.47;;
6033;SDS011;3045;43.226;27.858;2022-12-18T07:30:45;20.90;;;17.17;;
6033;SDS011;3045;43.226;27.858;2022-12-18T07:33:12;22.53;;;16.93;;
6033;SDS011;3045;43.226;27.858;2022-12-18T07:35:39;30.30;;;17.50;;
6033;SDS011;3045;43.226;27.858;2022-12-18T07:38:05;23.07;;;17.23;;
6033;SDS011;3045;43.226;27.858;2022-12-18T07:40:34;22.50;;;16.83;;
6033;SDS011;3045;43.226;27.858;2022-12-18T07:43:00;22.43;;;16.57;;
6033;SDS011;3045;43.226;27.858;2022-12-18T07:45:27;24.07;;;17.23;;
6033;SDS011;3045;43.226;27.858;2022-12-18T07:47:54;22.43;;;16.47;;
6033;SDS011;3045;43.226;27.858;2022-12-18T07:50:21;28.07;;;17.27;;
6033;SDS011;3045;43.226;27.858;2022-12-18T07:52:49;27.40;;;17.00;;
6033;SDS011;3045;43.226;27.858;2022-12-18T07:55:16;27.40;;;17.77;;
6033;SDS011;3045;43.226;27.858;2022-12-18T07:57:44;27.20;;;17.30;;
6033;SDS011;3045;43.226;27.858;2022-12-18T08:00:11;20.93;;;17.07;;
6033;SDS011;3045;43.226;27.858;2022-12-18T08:02:39;25.40;;;17.63;;
6033;SDS011;3045;43.226;27.858;2022-12-18T08:05:06;25.63;;;18.07;;
6033;SDS011;3045;43.226;27.858;2022-12-18T08:07:33;24.10;;;17.33;;
6033;SDS011;3045;43.226;27.858;2022-12-18T08:10:00;25.47;;;17.77;;
6033;SDS011;3045;43.226;27.858;2022-12-18T08:12:27;23.87;;;17.47;;
6033;SDS011;3045;43.226;27.858;2022-12-18T08:14:55;23.63;;;17.73;;
6033;SDS011;3045;43.226;27.858;2022-12-18T08:17:22;22.07;;;16.77;;
6033;SDS011;3045;43.226;27.858;2022-12-18T08:19:49;25.03;;;17.13;;
6033;SDS011;3045;43.226;27.858;2022-12-18T08:22:16;21.10;;;17.00;;
6033;SDS011;3045;43.226;27.858;2022-12-18T08:24:42;25.63;;;17.53;;
6033;SDS011;3045;43.226;27.858;2022-12-18T08:27:09;25.40;;;17.93;;
6033;SDS011;3045;43.226;27.858;2022-12-18T08:29:36;22.00;;;17.63;;
6033;SDS011;3045;43.226;27.858;2022-12-18T08:32:05;25.30;;;18.10;;
6033;SDS011;3045;43.226;27.858;2022-12-18T08:34:32;22.83;;;17.33;;
6033;SDS011;3045;43.226;27.858;2022-12-18T08:36:58;28.00;;;18.30;;
6033;SDS011;3045;43.226;27.858;2022-12-18T08:39:25;29.23;;;19.53;;
6033;SDS011;3045;43.226;27.858;2022-12-18T08:41:52;27.83;;;19.50;;
6033;SDS011;3045;43.226;27.858;2022-12-18T08:44:37;26.00;;;19.00;;
6033;SDS011;3045;43.226;27.858;2022-12-18T08:47:05;28.63;;;19.20;;
6033;SDS011;3045;43.226;27.858;2022-12-18T08:49:33;31.93;;;19.30;;
6033;SDS011;3045;43.226;27.858;2022-12-18T08:52:01;27.63;;;19.60;;
6033;SDS011;3045;43.226;27.858;2022-12-18T08:54:28;25.63;;;18.30;;
6033;SDS011;3045;43.226;27.858;2022-12-18T08:56:55;28.17;;;18.70;;
6033;SDS011;3045;43.226;27.858;2022-12-18T08:59:22;25.37;;;18.53;;
6033;SDS011;3045;43.226;27.858;2022-12-18T09:01:49;26.87;;;19.97;;
6033;SDS011;3045;43.226;27.858;2022-12-18T09:04:18;28.03;;;19.20;;
6033;SDS011;3045;43.226;27.858;2022-12-18T09:06:45;25.23;;;18.60;;
6033;SDS011;3045;43.226;27.858;2022-12-18T09:09:11;27.33;;;19.20;;
6033;SDS011;3045;43.226;27.858;2022-12-18T09:11:39;26.77;;;19.27;;
6033;SDS011;3045;43.226;27.858;2022-12-18T09:14:06;30.77;;;20.40;;
6033;SDS011;3045;43.226;27.858;2022-12-18T09:16:33;31.10;;;20.33;;
6033;SDS011;3045;43.226;27.858;2022-12-18T09:19:00;31.77;;;19.73;;
6033;SDS011;3045;43.226;27.858;2022-12-18T09:21:31;31.90;;;19.03;;
6033;SDS011;3045;43.226;27.858;2022-12-18T09:23:59;33.70;;;20.73;;
6033;SDS011;3045;43.226;27.858;2022-12-18T09:26:26;32.20;;;20.63;;
6033;SDS011;3045;43.226;27.858;2022-12-18T09:28:53;30.53;;;19.57;;
6033;SDS011;3045;43.226;27.858;2022-12-18T09:31:22;27.33;;;19.03;;
6033;SDS011;3045;43.226;27.858;2022-12-18T09:33:50;29.90;;;19.57;;
6033;SDS011;3045;43.226;27.858;2022-12-18T09:36:17;26.73;;;19.50;;
6033;SDS011;3045;43.226;27.858;2022-12-18T09:38:46;31.63;;;20.20;;
6033;SDS011;3045;43.226;27.858;2022-12-18T09:41:16;27.63;;;19.50;;
6033;SDS011;3045;43.226;27.858;2022-12-18T09:43:53;29.67;;;20.27;;
6033;SDS011;3045;43.226;27.858;2022-12-18T09:46:26;30.50;;;20.27;;
6033;SDS011;3045;43.226;27.858;2022-12-18T09:48:57;24.33;;;18.43;;
6033;SDS011;3045;43.226;27.858;2022-12-18T09:51:28;30.47;;;20.20;;
6033;SDS011;3045;43.226;27.858;2022-12-18T09:54:03;25.73;;;19.27;;
6033;SDS011;3045;43.226;27.858;2022-12-18T09:56:34;27.47;;;19.40;;
6033;SDS011;3045;43.226;27.858;2022-12-18T09:59:05;26.97;;;19.57;;
6033;SDS011;3045;43.226;27.858;2022-12-18T10:01:33;28.83;;;19.90;;
6033;SDS011;3045;43.226;27.858;2022-12-18T10:03:59;30.27;;;20.70;;
6033;SDS011;3045;43.226;27.858;2022-12-18T10:06:28;29.87;;;19.23;;
6033;SDS011;3045;43.226;27.858;2022-12-18T10:09:03;27.80;;;19.83;;
6033;SDS011;3045;43.226;27.858;2022-12-18T10:11:39;25.23;;;19.13;;
6033;SDS011;3045;43.226;27.858;2022-12-18T10:14:14;28.33;;;19.97;;
6033;SDS011;3045;43.226;27.858;2022-12-18T10:16:52;26.67;;;19.67;;
6033;SDS011;3045;43.226;27.858;2022-12-18T10:19:30;29.23;;;18.87;;
6033;SDS011;3045;43.226;27.858;2022-12-18T10:22:07;24.37;;;18.67;;
6033;SDS011;3045;43.226;27.858;2022-12-18T10:24:44;25.07;;;18.40;;
6033;SDS011;3045;43.226;27.858;2022-12-18T10:27:21;26.53;;;18.17;;
6033;SDS011;3045;43.226;27.858;2022-12-18T10:29:50;23.23;;;17.20;;
6033;SDS011;3045;43.226;27.858;2022-12-18T10:32:17;25.00;;;18.67;;
6033;SDS011;3045;43.226;27.858;2022-12-18T10:34:46;31.30;;;18.43;;
6033;SDS011;3045;43.226;27.858;2022-12-18T10:37:15;24.07;;;17.70;;
6033;SDS011;3045;43.226;27.858;2022-12-18T10:39:46;23.87;;;17.70;;
6033;SDS011;3045;43.226;27.858;2022-12-18T10:42:31;24.13;;;18.37;;
6033;SDS011;3045;43.226;27.858;2022-12-18T10:45:01;24.13;;;17.60;;
6033;SDS011;3045;43.226;27.858;2022-12-18T10:47:29;27.17;;;18.90;;
6033;SDS011;3045;43.226;27.858;2022-12-18T10:49:56;23.40;;;18.87;;
6033;SDS011;3045;43.226;27.858;2022-12-18T10:52:24;28.20;;;19.40;;
6033;SDS011;3045;43.226;27.858;2022-12-18T10:54:54;24.37;;;19.17;;
6033;SDS011;3045;43.226;27.858;2022-12-18T10:57:31;28.40;;;20.00;;
6033;SDS011;3045;43.226;27.858;2022-12-18T11:00:19;24.00;;;18.37;;
6033;SDS011;3045;43.226;27.858;2022-12-18T11:02:49;23.17;;;18.43;;
6033;SDS011;3045;43.226;27.858;2022-12-18T11:05:23;24.47;;;18.87;;
6033;SDS011;3045;43.226;27.858;2022-12-18T11:07:54;27.17;;;19.10;;
6033;SDS011;3045;43.226;27.858;2022-12-18T11:10:25;28.53;;;19.87;;
6033;SDS011;3045;43.226;27.858;2022-12-18T11:12:55;28.33;;;20.10;;
6033;SDS011;3045;43.226;27.858;2022-12-18T11:15:23;27.07;;;19.97;;
6033;SDS011;3045;43.226;27.858;2022-12-18T11:17:54;28.63;;;19.40;;
6033;SDS011;3045;43.226;27.858;2022-12-18T11:20:25;27.47;;;19.63;;
6033;SDS011;3045;43.226;27.858;2022-12-18T11:22:58;29.40;;;20.43;;
6033;SDS011;3045;43.226;27.858;2022-12-18T11:25:31;33.63;;;22.03;;
6033;SDS011;3045;43.226;27.858;2022-12-18T11:28:00;34.93;;;21.50;;
6033;SDS011;3045;43.226;27.858;2022-12-18T11:30:28;29.77;;;20.43;;
6033;SDS011;3045;43.226;27.858;2022-12-18T11:32:57;33.23;;;21.50;;
6033;SDS011;3045;43.226;27.858;2022-12-18T11:35:34;30.67;;;20.17;;
6033;SDS011;3045;43.226;27.858;2022-12-18T11:38:10;31.80;;;21.03;;
6033;SDS011;3045;43.226;27.858;2022-12-18T11:40:51;32.50;;;21.20;;
6033;SDS011;3045;43.226;27.858;2022-12-18T11:43:23;32.17;;;22.30;;
6033;SDS011;3045;43.226;27.858;2022-12-18T11:45:55;30.67;;;22.07;;
6033;SDS011;3045;43.226;27.858;2022-12-18T11:48:29;35.23;;;22.57;;
6033;SDS011;3045;43.226;27.858;2022-12-18T11:51:00;34.77;;;22.23;;
6033;SDS011;3045;43.226;27.858;2022-12-18T11:53:30;38.80;;;23.27;;
6033;SDS011;3045;43.226;27.858;2022-12-18T11:56:03;39.70;;;22.83;;
6033;SDS011;3045;43.226;27.858;2022-12-18T11:58:47;39.07;;;23.47;;
6033;SDS011;3045;43.226;27.858;2022-12-18T12:01:24;38.93;;;24.40;;
6033;SDS011;3045;43.226;27.858;2022-12-18T12:04:09;41.07;;;22.63;;
6033;SDS011;3045;43.226;27.858;2022-12-18T12:07:12;40.27;;;23.50;;
6033;SDS011;3045;43.226;27.858;2022-12-18T12:09:49;35.03;;;22.47;;
6033;SDS011;3045;43.226;27.858;2022-12-18T12:12:30;36.43;;;21.47;;
6033;SDS011;3045;43.226;27.858;2022-12-18T12:15:13;34.70;;;20.53;;
6033;SDS011;3045;43.226;27.858;2022-12-18T12:17:49;27.80;;;19.43;;
6033;SDS011;3045;43.226;27.858;2022-12-18T12:20:25;25.33;;;19.07;;
6033;SDS011;3045;43.226;27.858;2022-12-18T12:23:05;27.30;;;19.60;;
6033;SDS011;3045;43.226;27.858;2022-12-18T12:25:42;34.60;;;21.07;;
6033;SDS011;3045;43.226;27.858;2022-12-18T12:28:19;31.50;;;20.00;;
6033;SDS011;3045;43.226;27.858;2022-12-18T12:31:00;31.57;;;20.50;;
6033;SDS011;3045;43.226;27.858;2022-12-18T12:33:35;29.87;;;20.93;;
6033;SDS011;3045;43.226;27.858;2022-12-18T12:36:10;32.83;;;21.47;;
6033;SDS011;3045;43.226;27.858;2022-12-18T12:38:48;33.63;;;21.10;;
6033;SDS011;3045;43.226;27.858;2022-12-18T12:41:18;24.27;;;19.07;;
6033;SDS011;3045;43.226;27.858;2022-12-18T12:44:08;20.07;;;15.60;;
6033;SDS011;3045;43.226;27.858;2022-12-18T12:46:39;14.87;;;13.33;;
6033;SDS011;3045;43.226;27.858;2022-12-18T12:49:09;14.63;;;13.10;;
6033;SDS011;3045;43.226;27.858;2022-12-18T12:51:40;16.93;;;13.57;;
6033;SDS011;3045;43.226;27.858;2022-12-18T12:54:13;18.60;;;13.90;;
6033;SDS011;3045;43.226;27.858;2022-12-18T12:56:44;16.17;;;11.83;;
6033;SDS011;3045;43.226;27.858;2022-12-18T12:59:19;12.03;;;11.00;;
6033;SDS011;3045;43.226;27.858;2022-12-18T13:01:57;9.80;;;9.20;;
6033;SDS011;3045;43.226;27.858;2022-12-18T13:04:32;9.63;;;8.93;;
6033;SDS011;3045;43.226;27.858;2022-12-18T13:07:05;8.67;;;8.10;;
6033;SDS011;3045;43.226;27.858;2022-12-18T13:12:53;7.10;;;6.70;;
6033;SDS011;3045;43.226;27.858;2022-12-18T13:15:32;7.30;;;7.00;;
6033;SDS011;3045;43.226;27.858;2022-12-18T13:18:04;6.80;;;6.50;;
6033;SDS011;3045;43.226;27.858;2022-12-18T13:20:37;8.40;;;7.90;;
6033;SDS011;3045;43.226;27.858;2022-12-18T13:23:19;11.60;;;7.70;;
6033;SDS011;3045;43.226;27.858;2022-12-18T13:25:57;7.57;;;7.17;;
6033;SDS011;3045;43.226;27.858;2022-12-18T13:34:19;7.00;;;6.57;;
6033;SDS011;3045;43.226;27.858;2022-12-18T13:36:47;7.17;;;6.77;;
6033;SDS011;3045;43.226;27.858;2022-12-18T13:39:21;8.00;;;7.60;;
6033;SDS011;3045;43.226;27.858;2022-12-18T13:48:15;7.93;;;7.53;;
6033;SDS011;3045;43.226;27.858;2022-12-18T13:53:36;6.97;;;6.57;;
6033;SDS011;3045;43.226;27.858;2022-12-18T13:56:08;7.80;;;7.40;;
6033;SDS011;3045;43.226;27.858;2022-12-18T13:58:35;7.23;;;6.83;;
6033;SDS011;3045;43.226;27.858;2022-12-18T14:01:02;7.07;;;6.40;;
6033;SDS011;3045;43.226;27.858;2022-12-18T14:03:29;7.40;;;6.80;;
6033;SDS011;3045;43.226;27.858;2022-12-18T14:06:01;8.57;;;7.70;;
6033;SDS011;3045;43.226;27.858;2022-12-18T14:08:35;9.43;;;7.27;;
6033;SDS011;3045;43.226;27.858;2022-12-18T14:11:05;8.10;;;7.50;;
6033;SDS011;3045;43.226;27.858;2022-12-18T14:13:35;8.47;;;8.00;;
6033;SDS011;3045;43.226;27.858;2022-12-18T14:16:04;8.57;;;7.83;;
6033;SDS011;3045;43.226;27.858;2022-12-18T14:18:35;8.53;;;7.90;;
6033;SDS011;3045;43.226;27.858;2022-12-18T14:21:14;8.77;;;7.90;;
6033;SDS011;3045;43.226;27.858;2022-12-18T14:23:44;8.50;;;7.90;;
6033;SDS011;3045;43.226;27.858;2022-12-18T14:26:22;8.50;;;8.00;;
6033;SDS011;3045;43.226;27.858;2022-12-18T14:28:53;9.53;;;8.10;;
6033;SDS011;3045;43.226;27.858;2022-12-18T14:31:20;8.50;;;7.90;;
6033;SDS011;3045;43.226;27.858;2022-12-18T14:33:48;9.33;;;8.57;;
6033;SDS011;3045;43.226;27.858;2022-12-18T14:36:17;9.47;;;8.67;;
6033;SDS011;3045;43.226;27.858;2022-12-18T14:38:47;8.30;;;7.47;;
6033;SDS011;3045;43.226;27.858;2022-12-18T14:41:16;9.83;;;9.03;;
6033;SDS011;3045;43.226;27.858;2022-12-18T14:43:45;8.07;;;7.47;;
6033;SDS011;3045;43.226;27.858;2022-12-18T14:46:28;9.20;;;8.60;;
6033;SDS011;3045;43.226;27.858;2022-12-18T14:48:57;8.13;;;7.63;;
6033;SDS011;3045;43.226;27.858;2022-12-18T14:51:30;7.67;;;7.30;;
6033;SDS011;3045;43.226;27.858;2022-12-18T14:53:59;9.17;;;8.57;;
6033;SDS011;3045;43.226;27.858;2022-12-18T14:56:29;8.60;;;7.97;;
6033;SDS011;3045;43.226;27.858;2022-12-18T14:58:59;8.90;;;8.40;;
6033;SDS011;3045;43.226;27.858;2022-12-18T15:01:28;8.13;;;7.70;;
6033;SDS011;3045;43.226;27.858;2022-12-18T15:03:58;8.47;;;7.80;;
6033;SDS011;3045;43.226;27.858;2022-12-18T15:06:26;8.83;;;8.33;;
6033;SDS011;3045;43.226;27.858;2022-12-18T15:08:57;8.80;;;7.97;;
6033;SDS011;3045;43.226;27.858;2022-12-18T15:11:26;8.47;;;7.97;;
6033;SDS011;3045;43.226;27.858;2022-12-18T15:13:59;8.67;;;8.00;;
6033;SDS011;3045;43.226;27.858;2022-12-18T15:16:26;8.83;;;8.23;;
6033;SDS011;3045;43.226;27.858;2022-12-18T15:18:53;8.67;;;8.17;;
6033;SDS011;3045;43.226;27.858;2022-12-18T15:21:20;8.07;;;7.57;;
6033;SDS011;3045;43.226;27.858;2022-12-18T15:23:49;9.63;;;8.87;;